createdAt,value
2018-04-22T00:00:12.511Z,19.00
2018-04-22T00:02:39.946Z,19.00
2018-04-22T00:05:07.377Z,19.00
2018-04-22T00:07:34.842Z,19.00
2018-04-22T00:10:02.259Z,18.90
2018-04-22T00:12:30.482Z,18.80
2018-04-22T00:14:57.925Z,18.80
2018-04-22T00:17:26.184Z,18.80
2018-04-22T00:19:53.614Z,18.70
2018-04-22T00:22:21.042Z,18.70
2018-04-22T00:24:49.263Z,18.70
2018-04-22T00:27:16.706Z,18.60
2018-04-22T00:29:44.920Z,18.60
2018-04-22T00:32:12.403Z,18.60
2018-04-22T00:34:39.845Z,18.50
2018-04-22T00:37:07.274Z,18.50
2018-04-22T00:39:34.727Z,18.40
2018-04-22T00:42:02.171Z,18.30
2018-04-22T00:44:29.615Z,18.30
2018-04-22T00:46:57.922Z,18.20
2018-04-22T00:49:25.397Z,18.20
2018-04-22T00:51:52.830Z,18.20
2018-04-22T00:54:21.803Z,18.10
2018-04-22T00:56:49.224Z,18.10
2018-04-22T00:59:17.435Z,18.00
2018-04-22T01:01:44.862Z,18.00
2018-04-22T01:04:13.067Z,17.90
2018-04-22T01:06:41.249Z,17.90
2018-04-22T01:09:09.579Z,17.90
2018-04-22T01:11:37.022Z,17.90
2018-04-22T01:14:04.469Z,17.80
2018-04-22T01:16:31.990Z,17.80
2018-04-22T01:19:00.479Z,17.80
2018-04-22T01:21:27.938Z,17.70
2018-04-22T01:23:55.386Z,17.70
2018-04-22T01:26:23.576Z,17.50
2018-04-22T01:28:51.067Z,17.50
2018-04-22T01:31:18.495Z,17.40
2018-04-22T01:33:46.006Z,17.40
2018-04-22T01:36:13.435Z,17.40
2018-04-22T01:38:40.867Z,17.30
2018-04-22T01:41:08.315Z,17.30
2018-04-22T01:43:35.781Z,17.30
2018-04-22T01:46:03.215Z,17.30
2018-04-22T01:48:31.501Z,17.20
2018-04-22T01:50:58.935Z,17.20
2018-04-22T01:53:26.387Z,17.30
2018-04-22T01:55:53.850Z,17.20
2018-04-22T01:58:21.277Z,17.30
2018-04-22T02:00:48.787Z,17.30
2018-04-22T02:03:16.259Z,17.20
2018-04-22T02:05:43.726Z,17.20
2018-04-22T02:08:11.198Z,17.20
2018-04-22T02:10:38.631Z,17.20
2018-04-22T02:13:06.825Z,17.20
2018-04-22T02:15:35.018Z,17.20
2018-04-22T02:18:03.227Z,17.20
2018-04-22T02:20:30.662Z,17.20
2018-04-22T02:22:58.082Z,17.20
2018-04-22T02:25:25.514Z,17.20
2018-04-22T02:27:53.718Z,17.20
2018-04-22T02:30:21.190Z,17.10
2018-04-22T02:32:48.619Z,17.20
2018-04-22T02:35:16.055Z,17.10
2018-04-22T02:37:43.474Z,17.10
2018-04-22T02:40:11.675Z,17.00
2018-04-22T02:42:39.103Z,17.00
2018-04-22T02:45:06.626Z,17.00
2018-04-22T02:47:34.098Z,17.00
2018-04-22T02:50:01.568Z,16.90
2018-04-22T02:52:28.991Z,16.90
2018-04-22T02:54:56.507Z,16.80
2018-04-22T02:57:23.970Z,16.70
2018-04-22T02:59:51.439Z,16.60
2018-04-22T03:02:18.908Z,16.60
2018-04-22T03:04:46.342Z,16.50
2018-04-22T03:07:13.767Z,16.50
2018-04-22T03:09:41.227Z,16.50
2018-04-22T03:12:08.691Z,16.40
2018-04-22T03:14:36.130Z,16.40
2018-04-22T03:17:04.346Z,16.40
2018-04-22T03:19:31.782Z,16.40
2018-04-22T03:21:59.975Z,16.30
2018-04-22T03:24:28.175Z,16.30
2018-04-22T03:26:55.611Z,16.30
2018-04-22T03:29:23.130Z,16.30
2018-04-22T03:31:50.608Z,16.20
2018-04-22T03:34:18.067Z,16.20
2018-04-22T03:36:45.494Z,16.20
2018-04-22T03:39:13.007Z,16.10
2018-04-22T03:41:40.426Z,16.10
2018-04-22T03:44:08.622Z,16.10
2018-04-22T03:46:36.062Z,16.10
2018-04-22T03:49:03.482Z,16.10
2018-04-22T03:51:30.922Z,16.10
2018-04-22T03:53:58.441Z,16.10
2018-04-22T03:56:25.878Z,16.00
2018-04-22T03:58:54.072Z,16.00
2018-04-22T04:01:22.284Z,16.00
2018-04-22T04:03:49.707Z,16.00
2018-04-22T04:06:17.939Z,16.00
2018-04-22T04:08:45.368Z,16.00
2018-04-22T04:11:12.882Z,16.00
2018-04-22T04:13:40.318Z,16.00
2018-04-22T04:16:08.514Z,16.00
2018-04-22T04:21:53.147Z,16.00
2018-04-22T04:24:42.222Z,15.90
2018-04-22T04:27:21.508Z,15.90
2018-04-22T04:29:48.942Z,15.90
2018-04-22T04:32:16.372Z,15.90
2018-04-22T04:34:43.829Z,15.90
2018-04-22T04:37:11.222Z,15.90
2018-04-22T04:39:39.434Z,15.90
2018-04-22T04:42:06.867Z,15.90
2018-04-22T04:44:34.379Z,15.90
2018-04-22T04:47:01.811Z,15.90
2018-04-22T04:49:30.006Z,15.90
2018-04-22T04:51:58.207Z,15.80
2018-04-22T04:54:25.678Z,15.80
2018-04-22T04:56:53.163Z,15.90
2018-04-22T04:59:20.595Z,15.90
2018-04-22T05:01:48.107Z,15.90
2018-04-22T05:04:15.567Z,15.90
2018-04-22T05:06:43.747Z,15.80
2018-04-22T05:09:11.228Z,15.80
2018-04-22T05:11:38.663Z,15.80
2018-04-22T05:14:06.886Z,15.80
2018-04-22T05:16:34.322Z,15.80
2018-04-22T05:19:01.742Z,15.90
2018-04-22T05:21:29.179Z,15.90
2018-04-22T05:23:56.598Z,15.90
2018-04-22T05:26:24.034Z,15.90
2018-04-22T05:28:51.460Z,16.00
2018-04-22T05:31:19.675Z,16.00
2018-04-22T05:33:47.154Z,16.00
2018-04-22T05:36:14.586Z,16.00
2018-04-22T05:38:42.784Z,16.10
2018-04-22T05:41:10.998Z,16.10
2018-04-22T05:43:39.187Z,16.10
2018-04-22T05:46:06.618Z,16.10
2018-04-22T05:48:34.808Z,16.20
2018-04-22T05:51:03.031Z,16.20
2018-04-22T05:53:30.498Z,16.20
2018-04-22T05:55:57.930Z,16.30
2018-04-22T05:58:26.122Z,16.30
2018-04-22T06:00:54.327Z,16.40
2018-04-22T06:03:22.506Z,16.40
2018-04-22T06:05:50.711Z,16.50
2018-04-22T06:08:18.139Z,16.50
2018-04-22T06:10:45.654Z,16.60
2018-04-22T06:13:13.085Z,16.60
2018-04-22T06:15:40.598Z,16.70
2018-04-22T06:18:08.030Z,16.80
2018-04-22T06:20:35.454Z,16.80
2018-04-22T06:23:02.902Z,16.90
2018-04-22T06:25:30.339Z,17.00
2018-04-22T06:27:58.561Z,17.10
2018-04-22T06:30:26.030Z,17.10
2018-04-22T06:32:53.454Z,17.20
2018-04-22T06:35:20.885Z,17.20
2018-04-22T06:37:48.310Z,17.30
2018-04-22T06:40:16.579Z,17.40
2018-04-22T06:42:43.998Z,17.40
2018-04-22T06:45:11.431Z,17.50
2018-04-22T06:47:39.647Z,17.60
2018-04-22T06:50:07.071Z,17.60
2018-04-22T06:52:34.591Z,17.70
2018-04-22T06:55:02.015Z,17.80
2018-04-22T06:57:29.446Z,17.80
2018-04-22T06:59:56.895Z,17.90
2018-04-22T07:02:24.334Z,18.00
2018-04-22T07:04:52.554Z,18.10
2018-04-22T07:07:19.989Z,18.10
2018-04-22T07:09:48.183Z,18.30
2018-04-22T07:12:16.394Z,18.30
2018-04-22T07:14:43.823Z,18.30
2018-04-22T07:17:11.255Z,18.40
2018-04-22T07:19:38.678Z,18.50
2018-04-22T07:22:06.878Z,18.70
2018-04-22T07:24:34.358Z,18.70
2018-04-22T07:27:01.839Z,18.80
2018-04-22T07:29:29.261Z,18.80
2018-04-22T07:31:57.483Z,19.00
2018-04-22T07:34:24.958Z,18.90
2018-04-22T07:36:52.428Z,19.00
2018-04-22T07:39:19.894Z,19.00
2018-04-22T07:41:47.471Z,19.10
2018-04-22T07:44:14.898Z,19.10
2018-04-22T07:46:42.330Z,19.20
2018-04-22T07:49:09.755Z,19.30
2018-04-22T07:51:37.954Z,19.40
2018-04-22T07:54:05.378Z,19.40
2018-04-22T07:56:32.908Z,19.50
2018-04-22T07:59:00.326Z,19.60
2018-04-22T08:01:27.754Z,19.70
2018-04-22T08:03:55.177Z,19.80
2018-04-22T08:06:23.381Z,19.90
2018-04-22T08:08:50.971Z,19.90
2018-04-22T08:11:18.434Z,20.00
2018-04-22T08:13:45.918Z,20.10
2018-04-22T08:16:13.394Z,20.20
2018-04-22T08:18:40.851Z,20.40
2018-04-22T08:21:08.286Z,20.40
2018-04-22T08:23:36.478Z,20.70
2018-04-22T08:26:04.670Z,20.80
2018-04-22T08:28:32.882Z,20.90
2018-04-22T08:31:00.314Z,20.90
2018-04-22T08:33:28.498Z,21.10
2018-04-22T08:35:56.720Z,21.20
2018-04-22T08:38:24.146Z,21.10
2018-04-22T08:40:51.703Z,21.30
2018-04-22T08:43:19.126Z,21.40
2018-04-22T08:45:46.603Z,21.50
2018-04-22T08:48:14.030Z,21.60
2018-04-22T08:50:41.552Z,21.70
2018-04-22T08:53:09.014Z,21.80
2018-04-22T08:55:36.478Z,21.90
2018-04-22T08:58:03.954Z,22.00
2018-04-22T09:00:31.426Z,22.10
2018-04-22T09:02:58.857Z,22.20
2018-04-22T09:05:27.054Z,22.40
2018-04-22T09:07:55.250Z,22.40
2018-04-22T09:10:22.669Z,22.40
2018-04-22T09:12:50.102Z,22.50
2018-04-22T09:15:17.530Z,22.50
2018-04-22T09:17:44.959Z,22.60
2018-04-22T09:20:12.382Z,22.80
2018-04-22T09:22:40.583Z,23.10
2018-04-22T09:25:08.011Z,23.10
2018-04-22T09:27:35.553Z,23.20
2018-04-22T09:30:02.974Z,23.40
2018-04-22T09:32:31.210Z,23.70
2018-04-22T09:34:58.670Z,23.60
2018-04-22T09:37:26.127Z,23.80
2018-04-22T09:39:53.542Z,23.80
2018-04-22T09:42:21.066Z,23.90
2018-04-22T09:44:48.490Z,24.00
2018-04-22T09:47:17.438Z,24.40
2018-04-22T09:49:44.889Z,24.40
2018-04-22T09:52:13.083Z,24.80
2018-04-22T09:54:41.317Z,25.00
2018-04-22T09:57:08.774Z,25.00
2018-04-22T09:59:36.233Z,25.20
2018-04-22T10:02:03.666Z,25.30
2018-04-22T10:04:37.598Z,25.70
2018-04-22T10:07:05.837Z,25.70
2018-04-22T10:09:33.254Z,25.70
2018-04-22T10:12:01.459Z,26.10
2018-04-22T10:14:29.034Z,26.10
2018-04-22T10:16:56.514Z,26.10
2018-04-22T10:19:23.938Z,26.20
2018-04-22T10:21:52.177Z,26.30
2018-04-22T10:24:19.624Z,26.30
2018-04-22T10:26:47.815Z,26.60
2018-04-22T10:29:15.299Z,26.60
2018-04-22T10:31:42.736Z,26.80
2018-04-22T10:34:10.926Z,26.70
2018-04-22T10:36:39.127Z,26.80
2018-04-22T10:39:06.554Z,26.80
2018-04-22T10:41:34.082Z,26.90
2018-04-22T10:44:01.542Z,27.00
2018-04-22T10:46:28.983Z,26.80
2018-04-22T10:48:58.196Z,26.60
2018-04-22T10:51:26.407Z,26.70
2018-04-22T10:53:53.882Z,26.60
2018-04-22T10:56:21.342Z,26.80
2018-04-22T10:58:48.771Z,27.10
2018-04-22T11:01:16.290Z,27.40
2018-04-22T11:03:43.761Z,27.80
2018-04-22T11:06:11.186Z,28.20
2018-04-22T11:08:38.621Z,28.60
2018-04-22T11:11:06.075Z,29.00
2018-04-22T11:13:33.538Z,29.30
2018-04-22T11:16:01.010Z,29.50
2018-04-22T11:18:28.493Z,29.60
2018-04-22T11:20:55.919Z,29.80
2018-04-22T11:23:24.118Z,30.00
2018-04-22T11:25:51.545Z,30.00
2018-04-22T11:28:18.978Z,30.00
2018-04-22T11:30:46.406Z,29.60
2018-04-22T11:33:14.616Z,29.60
2018-04-22T11:35:42.044Z,29.60
2018-04-22T11:38:09.570Z,29.80
2018-04-22T11:40:37.043Z,30.20
2018-04-22T11:43:04.482Z,30.50
2018-04-22T11:45:32.676Z,30.90
2018-04-22T11:48:00.882Z,31.10
2018-04-22T11:50:28.350Z,31.10
2018-04-22T11:52:55.781Z,31.40
2018-04-22T11:55:23.206Z,31.70
2018-04-22T11:57:50.643Z,31.70
2018-04-22T12:00:18.074Z,31.70
2018-04-22T12:02:45.599Z,31.80
2018-04-22T12:05:13.026Z,31.80
2018-04-22T12:07:40.543Z,32.00
2018-04-22T12:10:08.010Z,32.20
2018-04-22T12:12:35.489Z,32.20
2018-04-22T12:15:02.957Z,32.40
2018-04-22T12:17:30.524Z,32.60
2018-04-22T12:19:57.946Z,32.40
2018-04-22T12:22:25.458Z,32.60
2018-04-22T12:24:52.933Z,32.50
2018-04-22T12:27:20.375Z,32.40
2018-04-22T12:29:48.586Z,32.10
2018-04-22T12:32:16.023Z,32.10
2018-04-22T12:34:44.246Z,31.60
2018-04-22T12:37:11.715Z,31.60
2018-04-22T12:39:39.182Z,31.60
2018-04-22T12:42:06.616Z,31.70
2018-04-22T12:44:34.853Z,32.00
2018-04-22T12:47:02.310Z,32.00
2018-04-22T12:49:29.783Z,32.40
2018-04-22T12:51:57.250Z,32.90
2018-04-22T12:54:24.723Z,33.20
2018-04-22T12:56:52.196Z,33.40
2018-04-22T12:59:19.670Z,33.30
2018-04-22T13:01:47.047Z,33.20
2018-04-22T13:04:14.482Z,33.20
2018-04-22T13:06:41.936Z,33.10
2018-04-22T13:09:10.119Z,33.40
2018-04-22T13:11:38.311Z,33.50
2018-04-22T13:14:06.561Z,33.50
2018-04-22T13:16:33.945Z,33.40
2018-04-22T13:19:01.377Z,33.30
2018-04-22T13:21:28.838Z,33.10
2018-04-22T13:23:56.266Z,32.90
2018-04-22T13:26:23.779Z,32.70
2018-04-22T13:28:51.239Z,32.60
2018-04-22T13:31:18.658Z,32.50
2018-04-22T13:33:46.182Z,32.50
2018-04-22T13:36:13.658Z,32.50
2018-04-22T13:38:41.126Z,32.40
2018-04-22T13:41:08.595Z,32.20
2018-04-22T13:43:36.022Z,32.00
2018-04-22T13:46:03.442Z,31.90
2018-04-22T13:48:30.869Z,31.80
2018-04-22T13:50:59.053Z,31.60
2018-04-22T13:53:27.282Z,31.60
2018-04-22T13:55:54.726Z,31.50
2018-04-22T13:58:22.210Z,31.50
2018-04-22T14:00:49.686Z,31.50
2018-04-22T14:03:17.133Z,31.50
2018-04-22T14:05:45.310Z,31.60
2018-04-22T14:08:13.506Z,31.60
2018-04-22T14:10:41.716Z,31.60
2018-04-22T14:13:09.143Z,31.50
2018-04-22T14:15:36.659Z,31.40
2018-04-22T14:18:04.094Z,31.10
2018-04-22T14:20:32.318Z,30.90
2018-04-22T14:22:59.746Z,30.90
2018-04-22T14:25:27.967Z,30.60
2018-04-22T14:27:55.442Z,30.60
2018-04-22T14:30:22.902Z,30.40
2018-04-22T14:32:50.334Z,30.30
2018-04-22T14:35:18.523Z,30.00
2018-04-22T14:37:45.954Z,30.00
2018-04-22T14:40:13.404Z,29.90
2018-04-22T14:42:40.826Z,29.80
2018-04-22T14:45:20.050Z,29.60
2018-04-22T14:47:47.488Z,29.50
2018-04-22T14:50:14.951Z,29.40
2018-04-22T14:52:42.374Z,29.40
2018-04-22T14:55:09.890Z,29.30
2018-04-22T14:57:37.326Z,29.20
2018-04-22T15:00:04.752Z,29.20
2018-04-22T15:02:32.183Z,29.30
2018-04-22T15:05:00.361Z,29.50
2018-04-22T15:07:28.575Z,29.50
2018-04-22T15:09:56.046Z,29.50
2018-04-22T15:12:23.475Z,29.70
2018-04-22T15:14:50.891Z,29.80
2018-04-22T15:17:18.325Z,30.00
2018-04-22T15:19:46.506Z,30.00
2018-04-22T15:22:14.707Z,30.00
2018-04-22T15:24:42.914Z,30.10
2018-04-22T15:27:10.390Z,30.10
2018-04-22T15:29:37.807Z,30.30
2018-04-22T15:32:05.328Z,30.40
2018-04-22T15:34:32.794Z,30.50
2018-04-22T15:37:00.262Z,30.50
2018-04-22T15:39:27.699Z,30.30
2018-04-22T15:41:55.882Z,30.10
2018-04-22T15:44:24.082Z,30.00
2018-04-22T15:46:52.266Z,29.90
2018-04-22T15:49:20.482Z,29.80
2018-04-22T15:51:47.951Z,29.80
2018-04-22T15:54:15.418Z,29.60
2018-04-22T15:56:42.838Z,29.60
2018-04-22T15:59:10.359Z,29.50
2018-04-22T16:01:37.834Z,29.30
2018-04-22T16:04:05.262Z,29.20
2018-04-22T16:06:32.677Z,29.00
2018-04-22T16:09:00.138Z,28.90
2018-04-22T16:11:27.611Z,28.70
2018-04-22T16:13:55.034Z,28.70
2018-04-22T16:16:22.543Z,28.60
2018-04-22T16:18:50.015Z,28.50
2018-04-22T16:21:17.444Z,28.40
2018-04-22T16:23:44.854Z,28.30
2018-04-22T16:26:12.270Z,28.20
2018-04-22T16:28:39.799Z,28.10
2018-04-22T16:31:07.263Z,28.10
2018-04-22T16:33:34.732Z,28.00
2018-04-22T16:36:02.167Z,28.00
2018-04-22T16:38:30.353Z,28.00
2018-04-22T16:40:58.582Z,28.10
2018-04-22T16:43:26.053Z,28.10
2018-04-22T16:45:53.466Z,28.20
2018-04-22T16:48:20.985Z,28.10
2018-04-22T16:50:48.458Z,28.00
2018-04-22T16:53:15.923Z,28.00
2018-04-22T16:55:43.343Z,27.90
2018-04-22T16:58:10.775Z,27.80
2018-04-22T17:00:38.238Z,27.70
2018-04-22T17:03:05.669Z,27.70
2018-04-22T17:05:33.142Z,27.60
2018-04-22T17:08:01.371Z,27.40
2018-04-22T17:10:28.791Z,27.40
2018-04-22T17:12:56.986Z,27.20
2018-04-22T17:15:25.167Z,27.10
2018-04-22T17:17:53.450Z,26.90
2018-04-22T17:20:20.959Z,26.90
2018-04-22T17:22:48.382Z,26.80
2018-04-22T17:25:15.807Z,26.70
2018-04-22T17:27:43.275Z,26.50
2018-04-22T17:30:10.740Z,26.40
2018-04-22T17:32:38.158Z,26.40
2018-04-22T17:35:05.679Z,26.20
2018-04-22T17:37:33.094Z,26.10
2018-04-22T17:40:00.620Z,26.10
2018-04-22T17:42:28.781Z,25.80
2018-04-22T17:44:56.970Z,25.80
2018-04-22T17:47:25.178Z,25.70
2018-04-22T17:49:52.648Z,25.70
2018-04-22T17:52:20.069Z,25.60
2018-04-22T17:54:47.496Z,25.60
2018-04-22T17:57:14.910Z,25.50
2018-04-22T17:59:42.342Z,25.40
2018-04-22T18:02:09.790Z,25.30
2018-04-22T18:04:37.264Z,25.20
2018-04-22T18:07:04.701Z,25.10
2018-04-22T18:09:32.885Z,24.90
2018-04-22T18:12:01.070Z,24.70
2018-04-22T18:14:29.289Z,24.70
2018-04-22T18:16:56.697Z,24.60
2018-04-22T18:19:24.128Z,24.50
2018-04-22T18:21:51.602Z,24.40
2018-04-22T18:24:19.040Z,24.30
2018-04-22T18:26:47.222Z,24.20
2018-04-22T18:29:15.416Z,24.10
2018-04-22T18:31:43.598Z,24.00
2018-04-22T18:34:11.794Z,24.00
2018-04-22T18:36:39.971Z,23.90
2018-04-22T18:39:08.162Z,23.80
2018-04-22T18:41:36.382Z,23.80
2018-04-22T18:44:03.802Z,23.70
2018-04-22T18:46:31.223Z,23.70
2018-04-22T18:48:58.654Z,23.70
2018-04-22T18:51:26.842Z,23.50
2018-04-22T18:53:55.063Z,23.40
2018-04-22T18:56:22.541Z,23.40
2018-04-22T18:58:50.016Z,23.40
2018-04-22T19:01:17.431Z,23.30
2018-04-22T19:03:44.859Z,23.30
2018-04-22T19:06:12.311Z,23.20
2018-04-22T19:08:39.738Z,23.20
2018-04-22T19:11:07.165Z,23.10
2018-04-22T19:13:34.614Z,23.00
2018-04-22T19:16:02.068Z,23.00
2018-04-22T19:18:30.245Z,22.90
2018-04-22T19:20:58.447Z,22.90
2018-04-22T19:23:25.937Z,22.90
2018-04-22T19:25:53.374Z,23.00
2018-04-22T19:28:21.589Z,22.90
2018-04-22T19:30:49.893Z,22.90
2018-04-22T19:33:17.326Z,22.90
2018-04-22T19:35:44.813Z,22.90
2018-04-22T19:38:12.291Z,22.80
2018-04-22T19:40:39.717Z,22.80
2018-04-22T19:43:07.148Z,22.80
2018-04-22T19:45:34.578Z,22.80
2018-04-22T19:48:02.158Z,22.80
2018-04-22T19:50:29.591Z,22.70
2018-04-22T19:52:57.113Z,22.70
2018-04-22T19:55:24.586Z,22.60
2018-04-22T19:57:52.052Z,22.60
2018-04-22T20:00:19.527Z,22.60
2018-04-22T20:02:46.959Z,22.60
2018-04-22T20:05:15.148Z,22.50
2018-04-22T20:07:43.347Z,22.50
2018-04-22T20:10:10.782Z,22.50
2018-04-22T20:12:38.221Z,22.40
2018-04-22T20:15:06.628Z,22.40
2018-04-22T20:17:34.060Z,22.30
2018-04-22T20:20:01.486Z,22.30
2018-04-22T20:22:29.752Z,22.30
2018-04-22T20:24:57.187Z,22.30
2018-04-22T20:27:25.372Z,22.20
2018-04-22T20:29:52.790Z,22.10
2018-04-22T20:32:20.208Z,22.10
2018-04-22T20:34:47.662Z,22.10
2018-04-22T20:37:15.910Z,22.00
2018-04-22T20:39:43.438Z,22.00
2018-04-22T20:42:10.944Z,22.00
2018-04-22T20:44:38.378Z,21.90
2018-04-22T20:47:05.815Z,21.80
2018-04-22T20:49:34.002Z,21.70
2018-04-22T20:52:02.186Z,21.60
2018-04-22T20:54:30.402Z,21.50
2018-04-22T20:56:57.870Z,21.50
2018-04-22T20:59:25.351Z,21.50
2018-04-22T21:01:52.818Z,21.40
2018-04-22T21:04:20.287Z,21.30
2018-04-22T21:06:47.698Z,21.30
2018-04-22T21:09:15.227Z,21.20
2018-04-22T21:11:42.655Z,21.20
2018-04-22T21:14:10.074Z,21.10
2018-04-22T21:16:37.490Z,21.10
2018-04-22T21:19:04.927Z,21.00
2018-04-22T21:21:32.346Z,21.00
2018-04-22T21:24:00.554Z,20.90
2018-04-22T21:26:27.994Z,20.80
2018-04-22T21:28:55.429Z,20.90
2018-04-22T21:31:22.883Z,20.90
2018-04-22T21:33:50.367Z,20.80
2018-04-22T21:36:18.528Z,20.70
2018-04-22T21:38:45.991Z,20.70
2018-04-22T21:41:13.482Z,20.70
2018-04-22T21:43:40.911Z,20.70
2018-04-22T21:46:09.118Z,20.60
2018-04-22T21:48:36.595Z,20.60
2018-04-22T21:51:04.028Z,20.60
2018-04-22T21:53:32.236Z,20.50
2018-04-22T21:55:59.693Z,20.50
2018-04-22T21:58:27.898Z,20.40
2018-04-22T22:00:55.343Z,20.40
2018-04-22T22:03:23.530Z,20.30
2018-04-22T22:05:51.789Z,20.30
2018-04-22T22:08:19.208Z,20.30
2018-04-22T22:10:46.629Z,20.30
2018-04-22T22:13:14.098Z,20.20
2018-04-22T22:15:41.516Z,20.10
2018-04-22T22:18:09.015Z,20.00
2018-04-22T22:20:36.449Z,20.00
2018-04-22T22:23:03.954Z,19.90
2018-04-22T22:25:31.411Z,19.90
2018-04-22T22:27:58.836Z,19.90
2018-04-22T22:30:27.056Z,19.80
2018-04-22T22:32:54.482Z,19.80
2018-04-22T22:35:23.414Z,19.70
2018-04-22T22:37:50.834Z,19.70
2018-04-22T22:40:18.293Z,19.70
2018-04-22T22:42:45.714Z,19.70
2018-04-22T22:45:13.910Z,19.60
2018-04-22T22:47:42.118Z,19.50
2018-04-22T22:50:09.594Z,19.50
2018-04-22T22:52:37.006Z,19.40
2018-04-22T22:55:04.523Z,19.40
2018-04-22T22:57:32.135Z,19.30
2018-04-22T22:59:59.568Z,19.20
2018-04-22T23:02:27.030Z,19.20
2018-04-22T23:04:54.506Z,19.10
2018-04-22T23:07:21.922Z,19.10
2018-04-22T23:09:49.350Z,19.10
2018-04-22T23:12:16.810Z,19.10
2018-04-22T23:14:44.282Z,19.00
2018-04-22T23:17:11.750Z,19.00
2018-04-22T23:19:39.228Z,18.90
2018-04-22T23:22:06.690Z,18.90
2018-04-22T23:24:34.159Z,18.90
2018-04-22T23:27:01.578Z,18.80
2018-04-22T23:29:29.102Z,18.80
2018-04-22T23:31:56.566Z,18.80
2018-04-22T23:34:24.042Z,18.80
2018-04-22T23:36:51.462Z,18.70
2018-04-22T23:39:18.875Z,18.70
2018-04-22T23:41:46.306Z,18.70
2018-04-22T23:44:14.491Z,18.60
2018-04-22T23:46:42.006Z,18.60
2018-04-22T23:49:09.422Z,18.60
2018-04-22T23:51:37.242Z,18.50
2018-04-22T23:54:04.663Z,18.50
2018-04-22T23:56:33.602Z,18.50
2018-04-22T23:59:01.817Z,18.50
